Open Full Screen Window  High Contrast Mode
September 26, 2016 8:13 PM EDT
Weather Information
Wind Direction
  ---
Wind Speed
  00 kt (0 mph)
Wind Gust
  00 kt (0 mph)
Altimeter
30.04 in
Visibility
10 SM
Temperature
15° C
59° F
Dewpoint
11° C
52° F
Humidity
77%
1hr Rain Fall
00.00 in.
24hr Rain Fall
00.15 in.
Sky Condition
Clear
VFR

METAR KI69 270013Z AUTO 00000KT 10SM CLR 15/11 A3004 RMK AO2 T01500113

*Background is not an actual portrayal of the airport.